createdAt,value
2018-08-18T00:00:20.168Z,23.36
2018-08-18T00:02:49.043Z,23.40
2018-08-18T00:05:18.700Z,23.17
2018-08-18T00:07:47.718Z,23.05
2018-08-18T00:10:20.172Z,23.24
2018-08-18T00:12:49.092Z,23.24
2018-08-18T00:15:18.043Z,23.20
2018-08-18T00:17:47.119Z,23.18
2018-08-18T00:20:18.068Z,23.19
2018-08-18T00:22:47.276Z,23.17
2018-08-18T00:25:16.205Z,23.16
2018-08-18T00:27:45.050Z,23.04
2018-08-18T00:30:19.176Z,23.09
2018-08-18T00:32:48.099Z,23.16
2018-08-18T00:35:17.044Z,23.31
2018-08-18T00:37:46.488Z,23.15
2018-08-18T00:40:15.447Z,23.03
2018-08-18T00:42:44.296Z,23.21
2018-08-18T00:45:14.101Z,23.43
2018-08-18T00:47:43.026Z,23.16
2018-08-18T00:50:13.696Z,23.10
2018-08-18T00:52:42.756Z,23.17
2018-08-18T00:55:11.720Z,23.50
2018-08-18T00:57:40.750Z,23.30
2018-08-18T01:00:09.655Z,23.64
2018-08-18T01:02:38.496Z,23.28
2018-08-18T01:05:07.474Z,23.09
2018-08-18T01:07:36.428Z,22.90
2018-08-18T01:10:05.596Z,22.85
2018-08-18T01:12:35.313Z,22.86
2018-08-18T01:15:04.228Z,23.06
2018-08-18T01:17:33.176Z,23.06
2018-08-18T01:20:02.061Z,23.01
2018-08-18T01:22:30.969Z,23.24
2018-08-18T01:24:59.823Z,23.49
2018-08-18T01:27:29.633Z,23.56
2018-08-18T01:30:04.491Z,24.00
2018-08-18T01:32:33.860Z,23.55
2018-08-18T01:35:02.761Z,23.48
2018-08-18T01:37:32.991Z,23.62
2018-08-18T01:40:02.160Z,23.76
2018-08-18T01:42:32.940Z,24.11
2018-08-18T01:45:01.904Z,24.23
2018-08-18T01:47:31.034Z,23.57
2018-08-18T01:50:04.368Z,23.86
2018-08-18T01:52:34.054Z,24.51
2018-08-18T01:55:03.065Z,24.42
2018-08-18T01:57:31.996Z,24.58
2018-08-18T02:00:05.539Z,24.82
2018-08-18T02:02:34.537Z,24.58
2018-08-18T02:05:12.299Z,24.94
2018-08-18T02:07:41.551Z,25.10
2018-08-18T02:10:10.457Z,24.90
2018-08-18T02:12:40.923Z,24.72
2018-08-18T02:15:09.760Z,24.38
2018-08-18T02:17:38.966Z,24.04
2018-08-18T02:20:09.581Z,24.11
2018-08-18T02:22:38.440Z,24.66
2018-08-18T02:25:07.423Z,24.46
2018-08-18T02:27:36.518Z,24.15
2018-08-18T02:30:17.525Z,24.22
2018-08-18T02:32:46.379Z,23.97
2018-08-18T02:35:15.356Z,24.19
2018-08-18T02:37:45.618Z,24.43
2018-08-18T02:40:16.259Z,24.06
2018-08-18T02:42:45.184Z,24.32
2018-08-18T02:45:14.965Z,24.53
2018-08-18T02:47:43.844Z,24.56
2018-08-18T02:50:13.838Z,24.55
2018-08-18T02:52:42.798Z,24.65
2018-08-18T02:55:12.432Z,24.37
2018-08-18T02:57:42.601Z,24.21
2018-08-18T03:00:14.063Z,24.17
2018-08-18T03:02:42.936Z,24.16
2018-08-18T03:05:11.851Z,24.05
2018-08-18T03:07:45.466Z,23.84
2018-08-18T03:10:19.432Z,24.12
2018-08-18T03:12:48.307Z,24.01
2018-08-18T03:16:19.855Z,23.92
2018-08-18T03:18:50.079Z,23.85
2018-08-18T03:21:20.340Z,24.30
2018-08-18T03:24:00.159Z,23.86
2018-08-18T03:26:48.904Z,23.81
2018-08-18T03:29:18.426Z,23.92
2018-08-18T03:31:47.656Z,23.85
2018-08-18T03:34:16.751Z,23.84
2018-08-18T03:36:48.128Z,23.95
2018-08-18T03:39:29.672Z,23.95
2018-08-18T03:41:59.864Z,23.94
2018-08-18T03:44:28.805Z,23.85
2018-08-18T03:46:57.647Z,23.94
2018-08-18T03:49:27.088Z,24.40
2018-08-18T03:51:56.564Z,24.03
2018-08-18T03:54:25.574Z,24.02
2018-08-18T03:56:54.608Z,23.87
2018-08-18T03:59:23.516Z,23.86
2018-08-18T04:01:53.735Z,24.28
2018-08-18T04:04:23.722Z,24.28
2018-08-18T04:06:53.823Z,24.35
2018-08-18T04:09:24.752Z,24.09
2018-08-18T04:11:53.817Z,24.27
2018-08-18T04:14:30.812Z,24.21
2018-08-18T04:16:59.753Z,24.32
2018-08-18T04:19:28.760Z,24.77
2018-08-18T04:21:57.796Z,25.04
2018-08-18T04:24:32.304Z,25.03
2018-08-18T04:27:01.767Z,24.92
2018-08-18T04:29:31.965Z,24.93
2018-08-18T04:32:01.600Z,24.87
2018-08-18T04:34:30.646Z,24.81
2018-08-18T04:37:00.570Z,24.95
2018-08-18T04:39:29.668Z,24.88
2018-08-18T04:41:58.575Z,24.66
2018-08-18T04:44:27.480Z,24.86
2018-08-18T04:46:56.419Z,25.00
2018-08-18T04:49:25.272Z,25.40
2018-08-18T04:51:54.160Z,25.43
2018-08-18T04:54:23.120Z,25.16
2018-08-18T04:56:52.228Z,25.14
2018-08-18T04:59:22.562Z,25.58
2018-08-18T05:01:51.392Z,25.55
2018-08-18T05:04:20.228Z,25.95
2018-08-18T05:06:49.129Z,25.78
2018-08-18T05:09:18.040Z,26.09
2018-08-18T05:11:47.043Z,25.77
2018-08-18T05:14:15.835Z,25.75
2018-08-18T05:16:44.746Z,25.75
2018-08-18T05:19:13.677Z,25.47
2018-08-18T05:21:42.649Z,25.85
2018-08-18T05:24:23.323Z,25.55
2018-08-18T05:26:53.295Z,25.92
2018-08-18T05:29:22.374Z,25.97
2018-08-18T05:31:51.356Z,26.08
2018-08-18T05:34:20.208Z,25.98
2018-08-18T05:36:49.063Z,26.14
2018-08-18T05:39:18.069Z,26.34
2018-08-18T05:41:46.973Z,26.31
2018-08-18T05:44:15.815Z,26.20
2018-08-18T05:46:44.736Z,26.40
2018-08-18T05:49:16.393Z,26.13
2018-08-18T05:51:47.538Z,26.16
2018-08-18T05:54:18.640Z,26.29
2018-08-18T05:56:47.511Z,26.29
2018-08-18T05:59:16.495Z,26.46
2018-08-18T06:01:45.558Z,26.52
2018-08-18T06:04:15.778Z,26.55
2018-08-18T06:06:45.653Z,26.75
2018-08-18T06:09:15.650Z,27.55
2018-08-18T06:11:44.703Z,26.94
2018-08-18T06:14:14.078Z,27.64
2018-08-18T06:16:43.456Z,27.13
2018-08-18T06:19:12.316Z,27.09
2018-08-18T06:21:41.240Z,27.47
2018-08-18T06:24:11.036Z,27.51
2018-08-18T06:26:40.023Z,27.92
2018-08-18T06:29:08.884Z,27.56
2018-08-18T06:32:14.369Z,28.02
2018-08-18T06:34:44.357Z,28.05
2018-08-18T06:37:13.281Z,28.01
2018-08-18T06:39:53.688Z,27.72
2018-08-18T06:42:36.564Z,28.09
2018-08-18T06:45:12.773Z,27.82
2018-08-18T06:47:42.185Z,28.09
2018-08-18T06:50:13.171Z,27.84
2018-08-18T06:52:42.375Z,27.88
2018-08-18T06:55:17.013Z,27.89
2018-08-18T06:57:48.543Z,27.73
2018-08-18T07:00:19.908Z,27.83
2018-08-18T07:02:48.856Z,27.94
2018-08-18T07:05:18.832Z,28.38
2018-08-18T07:07:48.421Z,28.32
2018-08-18T07:10:29.564Z,28.43
2018-08-18T07:13:02.732Z,28.37
2018-08-18T07:15:34.605Z,28.34
2018-08-18T07:18:03.604Z,28.63
2018-08-18T07:20:32.575Z,28.90
2018-08-18T07:23:01.582Z,28.54
2018-08-18T07:25:30.473Z,28.32
2018-08-18T07:28:04.350Z,28.72
2018-08-18T07:30:33.391Z,28.00
2018-08-18T07:33:02.575Z,28.31
2018-08-18T07:35:31.488Z,28.25
2018-08-18T07:38:00.461Z,28.59
2018-08-18T07:40:38.723Z,28.61
2018-08-18T07:43:08.503Z,28.80
2018-08-18T07:45:37.821Z,28.56
2018-08-18T07:48:07.719Z,28.76
2018-08-18T07:50:36.727Z,28.55
2018-08-18T07:53:05.611Z,29.08
2018-08-18T07:55:34.540Z,28.66
2018-08-18T07:58:05.055Z,28.86
2018-08-18T08:00:35.071Z,28.56
2018-08-18T08:03:04.205Z,28.80
2018-08-18T08:05:33.288Z,28.77
2018-08-18T08:08:02.164Z,28.69
2018-08-18T08:10:31.168Z,29.22
2018-08-18T08:13:00.179Z,29.66
2018-08-18T08:15:29.379Z,28.84
2018-08-18T08:17:58.281Z,29.29
2018-08-18T08:20:27.084Z,29.22
2018-08-18T08:22:56.497Z,29.06
2018-08-18T08:25:25.396Z,29.42
2018-08-18T08:27:54.961Z,29.43
2018-08-18T08:30:25.103Z,29.53
2018-08-18T08:32:53.956Z,29.30
2018-08-18T08:35:22.876Z,29.81
2018-08-18T08:37:52.859Z,30.07
2018-08-18T08:40:22.708Z,30.62
2018-08-18T08:42:51.680Z,30.40
2018-08-18T08:45:21.752Z,30.44
2018-08-18T08:47:50.567Z,30.71
2018-08-18T08:50:21.370Z,30.50
2018-08-18T08:52:55.339Z,30.39
2018-08-18T08:55:25.358Z,30.59
2018-08-18T08:57:54.272Z,30.46
2018-08-18T09:00:23.214Z,30.62
2018-08-18T09:02:52.135Z,30.57
2018-08-18T09:05:21.229Z,30.80
2018-08-18T09:07:50.187Z,30.61
2018-08-18T09:10:19.183Z,31.00
2018-08-18T09:12:48.851Z,30.92
2018-08-18T09:15:18.382Z,31.01
2018-08-18T09:17:47.235Z,30.72
2018-08-18T09:20:19.208Z,30.59
2018-08-18T09:22:58.252Z,30.84
2018-08-18T09:25:28.141Z,31.06
2018-08-18T09:27:58.050Z,30.74
2018-08-18T09:30:28.221Z,30.54
2018-08-18T09:33:02.198Z,30.99
2018-08-18T09:35:33.399Z,31.54
2018-08-18T09:38:02.427Z,31.34
2018-08-18T09:40:32.483Z,31.08
2018-08-18T09:43:04.660Z,31.18
2018-08-18T09:45:33.520Z,31.71
2018-08-18T09:48:02.476Z,31.94
2018-08-18T09:50:31.345Z,31.35
2018-08-18T09:53:00.204Z,31.61
2018-08-18T09:55:29.161Z,32.36
2018-08-18T09:57:58.015Z,31.69
2018-08-18T10:00:32.064Z,31.67
2018-08-18T10:03:00.987Z,31.72
2018-08-18T10:05:30.097Z,31.18
2018-08-18T10:07:59.116Z,31.23
2018-08-18T10:10:28.096Z,31.36
2018-08-18T10:12:56.996Z,31.35
2018-08-18T10:15:26.024Z,31.03
2018-08-18T10:17:54.948Z,31.35
2018-08-18T10:20:23.964Z,31.15
2018-08-18T10:22:52.795Z,31.02
2018-08-18T10:25:21.735Z,30.71
2018-08-18T10:27:50.704Z,30.53
2018-08-18T10:30:19.699Z,30.86
2018-08-18T10:32:55.081Z,30.78
2018-08-18T10:35:30.383Z,30.74
2018-08-18T10:38:00.483Z,31.05
2018-08-18T10:40:29.372Z,30.80
2018-08-18T10:42:58.443Z,30.95
2018-08-18T10:45:27.365Z,30.70
2018-08-18T10:47:56.276Z,30.84
2018-08-18T10:51:38.717Z,30.87
2018-08-18T10:54:07.854Z,30.71
2018-08-18T10:56:36.736Z,30.51
2018-08-18T10:59:14.888Z,30.82
2018-08-18T11:02:26.401Z,30.91
2018-08-18T11:04:55.268Z,30.72
2018-08-18T11:07:24.134Z,31.04
2018-08-18T11:09:53.099Z,31.17
2018-08-18T11:12:21.984Z,31.08
2018-08-18T11:14:55.940Z,31.08
2018-08-18T11:17:25.236Z,30.96
2018-08-18T11:19:55.577Z,31.15
2018-08-18T11:22:47.998Z,31.16
2018-08-18T11:25:16.829Z,31.05
2018-08-18T11:27:45.651Z,31.42
2018-08-18T11:30:14.570Z,31.33
2018-08-18T11:32:43.543Z,31.52
2018-08-18T11:35:12.524Z,31.81
2018-08-18T11:37:52.991Z,31.54
2018-08-18T11:40:22.891Z,31.47
2018-08-18T11:42:51.983Z,31.26
2018-08-18T11:45:22.140Z,31.44
2018-08-18T11:48:05.112Z,31.32
2018-08-18T11:50:34.204Z,31.04
2018-08-18T11:53:03.867Z,30.74
2018-08-18T11:55:32.812Z,31.16
2018-08-18T11:58:04.540Z,31.11
2018-08-18T12:00:37.563Z,31.28
2018-08-18T12:03:09.968Z,30.86
2018-08-18T12:05:44.879Z,30.71
2018-08-18T12:08:14.408Z,31.00
2018-08-18T12:10:43.578Z,30.84
2018-08-18T12:13:12.507Z,30.79
2018-08-18T12:15:56.003Z,31.05
2018-08-18T12:18:27.584Z,30.97
2018-08-18T12:20:58.795Z,31.13
2018-08-18T12:23:27.873Z,31.39
2018-08-18T12:26:01.729Z,31.18
2018-08-18T12:28:35.467Z,31.37
2018-08-18T12:31:06.389Z,30.98
2018-08-18T12:33:35.269Z,31.05
2018-08-18T12:36:04.163Z,31.19
2018-08-18T12:38:33.353Z,30.90
2018-08-18T12:41:03.008Z,30.71
2018-08-18T12:43:35.286Z,31.03
2018-08-18T12:46:04.977Z,31.43
2018-08-18T12:48:36.352Z,31.11
2018-08-18T12:51:05.779Z,30.52
2018-08-18T12:53:39.748Z,31.09
2018-08-18T12:56:08.964Z,30.97
2018-08-18T12:58:37.936Z,31.22
2018-08-18T13:01:06.888Z,31.13
2018-08-18T13:03:35.821Z,31.44
2018-08-18T13:06:04.869Z,31.34
2018-08-18T13:08:33.823Z,31.24
2018-08-18T13:11:02.693Z,31.24
2018-08-18T13:13:31.931Z,31.31
2018-08-18T13:16:01.162Z,31.15
2018-08-18T13:18:30.239Z,31.06
2018-08-18T13:20:59.164Z,30.75
2018-08-18T13:23:28.136Z,30.79
2018-08-18T13:25:57.032Z,30.53
2018-08-18T13:28:25.929Z,30.68
2018-08-18T13:30:54.852Z,30.54
2018-08-18T13:33:23.651Z,30.80
2018-08-18T13:35:52.611Z,30.96
2018-08-18T13:38:30.044Z,30.55
2018-08-18T13:40:59.025Z,31.12
2018-08-18T13:43:43.980Z,31.14
2018-08-18T13:46:14.382Z,31.16
2018-08-18T13:48:51.415Z,31.27
2018-08-18T13:51:21.012Z,31.43
2018-08-18T13:53:54.951Z,31.58
2018-08-18T13:56:29.024Z,32.38
2018-08-18T13:58:58.076Z,33.90
2018-08-18T14:01:31.417Z,33.73
2018-08-18T14:04:00.310Z,34.74
2018-08-18T14:06:29.336Z,35.46
2018-08-18T14:09:02.337Z,35.69
2018-08-18T14:11:31.773Z,35.21
2018-08-18T14:14:01.839Z,35.36
2018-08-18T14:16:31.522Z,35.01
2018-08-18T14:19:00.896Z,35.03
2018-08-18T14:21:29.978Z,35.01
2018-08-18T14:23:58.872Z,35.41
2018-08-18T14:26:27.744Z,35.93
2018-08-18T14:28:56.588Z,36.15
2018-08-18T14:31:25.448Z,34.09
2018-08-18T14:33:54.396Z,35.43
2018-08-18T14:36:24.360Z,35.40
2018-08-18T14:38:53.955Z,35.35
2018-08-18T14:41:43.141Z,35.28
2018-08-18T14:44:12.101Z,35.74
2018-08-18T14:46:41.194Z,35.47
2018-08-18T14:49:10.033Z,35.10
2018-08-18T14:51:38.948Z,36.20
2018-08-18T14:54:08.686Z,36.15
2018-08-18T14:56:37.535Z,36.19
2018-08-18T14:59:06.373Z,36.45
2018-08-18T15:01:35.343Z,36.94
2018-08-18T15:04:04.148Z,36.29
2018-08-18T15:06:33.116Z,36.58
2018-08-18T15:09:02.129Z,36.06
2018-08-18T15:11:30.986Z,34.97
2018-08-18T15:13:59.873Z,36.10
2018-08-18T15:16:28.710Z,36.03
2018-08-18T15:18:57.637Z,35.32
2018-08-18T15:21:26.573Z,35.65
2018-08-18T15:23:55.484Z,36.12
2018-08-18T15:26:24.420Z,36.22
2018-08-18T15:28:53.472Z,36.24
2018-08-18T15:31:22.517Z,35.53
2018-08-18T15:33:51.372Z,33.85
2018-08-18T15:36:32.275Z,32.22
2018-08-18T15:39:01.235Z,32.09
2018-08-18T15:41:30.053Z,31.95
2018-08-18T15:43:58.993Z,31.38
2018-08-18T15:46:27.920Z,31.53
2018-08-18T15:48:57.047Z,31.97
2018-08-18T15:51:25.883Z,33.33
2018-08-18T15:53:55.928Z,33.35
2018-08-18T15:56:25.945Z,34.01
2018-08-18T15:58:55.667Z,33.23
2018-08-18T16:01:28.000Z,33.95
2018-08-18T16:03:57.944Z,34.25
2018-08-18T16:06:26.860Z,33.17
2018-08-18T16:08:56.016Z,31.99
2018-08-18T16:11:24.985Z,30.96
2018-08-18T16:13:54.085Z,30.51
2018-08-18T16:16:23.087Z,30.63
2018-08-18T16:19:00.994Z,30.24
2018-08-18T16:21:31.824Z,30.01
2018-08-18T16:24:01.024Z,29.97
2018-08-18T16:26:29.935Z,29.49
2018-08-18T16:28:58.860Z,29.14
2018-08-18T16:31:27.943Z,29.02
2018-08-18T16:33:56.778Z,28.76
2018-08-18T16:36:31.953Z,28.59
2018-08-18T16:39:01.093Z,28.44
2018-08-18T16:41:30.028Z,28.15
2018-08-18T16:43:58.975Z,28.40
2018-08-18T16:46:29.465Z,28.45
2018-08-18T16:48:58.411Z,28.25
2018-08-18T16:51:27.450Z,28.55
2018-08-18T16:53:59.123Z,28.47
2018-08-18T16:56:30.262Z,28.26
2018-08-18T16:59:00.403Z,27.86
2018-08-18T17:01:29.309Z,27.63
2018-08-18T17:03:58.170Z,27.51
2018-08-18T17:06:27.108Z,27.61
2018-08-18T17:08:55.916Z,27.46
2018-08-18T17:11:24.792Z,27.40
2018-08-18T17:13:53.674Z,27.31
2018-08-18T17:16:22.818Z,27.41
2018-08-18T17:18:51.708Z,27.31
2018-08-18T17:21:20.690Z,27.32
2018-08-18T17:23:49.643Z,27.30
2018-08-18T17:26:18.595Z,27.20
2018-08-18T17:28:47.504Z,27.00
2018-08-18T17:31:16.448Z,27.07
2018-08-18T17:33:45.469Z,27.23
2018-08-18T17:36:14.386Z,27.09
2018-08-18T17:38:43.336Z,27.12
2018-08-18T17:41:12.292Z,26.99
2018-08-18T17:43:41.141Z,27.14
2018-08-18T17:46:10.028Z,27.10
2018-08-18T17:48:44.263Z,27.07
2018-08-18T17:51:13.172Z,27.09
2018-08-18T17:53:49.184Z,27.04
2018-08-18T17:56:18.067Z,27.00
2018-08-18T17:58:47.181Z,26.97
2018-08-18T18:01:16.016Z,27.06
2018-08-18T18:03:45.007Z,26.92
2018-08-18T18:06:13.901Z,27.28
2018-08-18T18:08:42.860Z,26.98
2018-08-18T18:11:11.784Z,27.05
2018-08-18T18:13:40.688Z,27.14
2018-08-18T18:16:28.285Z,26.83
2018-08-18T18:19:00.177Z,26.92
2018-08-18T18:21:29.189Z,26.73
2018-08-18T18:23:58.204Z,26.48
2018-08-18T18:26:27.169Z,26.72
2018-08-18T18:28:56.107Z,26.82
2018-08-18T18:31:24.921Z,26.47
2018-08-18T18:34:08.172Z,26.38
2018-08-18T18:36:37.009Z,26.10
2018-08-18T18:39:06.374Z,26.69
2018-08-18T18:41:35.244Z,26.51
2018-08-18T18:44:04.644Z,26.35
2018-08-18T18:46:33.662Z,26.27
2018-08-18T18:49:03.217Z,26.47
2018-08-18T18:51:32.124Z,26.24
2018-08-18T18:54:01.096Z,26.32
2018-08-18T18:56:30.034Z,26.68
2018-08-18T18:58:58.961Z,26.36
2018-08-18T19:01:27.871Z,26.26
2018-08-18T19:03:56.897Z,26.18
2018-08-18T19:06:25.860Z,26.15
2018-08-18T19:09:00.315Z,26.14
2018-08-18T19:11:29.288Z,26.06
2018-08-18T19:13:58.610Z,25.99
2018-08-18T19:16:27.585Z,26.27
2018-08-18T19:18:56.449Z,25.98
2018-08-18T19:21:30.654Z,25.73
2018-08-18T19:23:59.620Z,25.59
2018-08-18T19:26:37.243Z,25.62
2018-08-18T19:29:06.084Z,25.72
2018-08-18T19:31:35.893Z,25.96
2018-08-18T19:34:11.764Z,25.69
2018-08-18T19:36:53.620Z,25.58
2018-08-18T19:39:23.731Z,25.48
2018-08-18T19:41:52.784Z,25.65
2018-08-18T19:44:21.637Z,25.71
2018-08-18T19:46:50.527Z,25.81
2018-08-18T19:49:30.261Z,25.96
2018-08-18T19:52:03.693Z,25.89
2018-08-18T19:54:32.621Z,25.70
2018-08-18T19:57:01.601Z,25.82
2018-08-18T19:59:30.484Z,25.56
2018-08-18T20:01:59.674Z,25.85
2018-08-18T20:04:28.779Z,25.70
2018-08-18T20:06:57.950Z,25.55
2018-08-18T20:09:27.094Z,25.47
2018-08-18T20:11:56.043Z,25.46
2018-08-18T20:14:25.008Z,25.41
2018-08-18T20:16:53.947Z,25.42
2018-08-18T20:19:22.887Z,25.65
2018-08-18T20:21:51.711Z,25.58
2018-08-18T20:24:20.620Z,25.38
2018-08-18T20:26:49.577Z,25.31
2018-08-18T20:29:18.411Z,25.42
2018-08-18T20:32:00.013Z,25.29
2018-08-18T20:34:29.287Z,25.36
2018-08-18T20:36:58.115Z,25.39
2018-08-18T20:39:29.971Z,25.21
2018-08-18T20:41:59.095Z,25.10
2018-08-18T20:44:29.272Z,25.02
2018-08-18T20:46:58.536Z,25.03
2018-08-18T20:49:27.898Z,24.92
2018-08-18T20:51:56.848Z,24.90
2018-08-18T20:54:25.769Z,25.01
2018-08-18T20:56:54.598Z,25.01
2018-08-18T20:59:23.562Z,24.90
2018-08-18T21:01:52.593Z,25.22
2018-08-18T21:04:21.411Z,24.90
2018-08-18T21:06:50.283Z,24.84
2018-08-18T21:09:26.771Z,25.12
2018-08-18T21:11:55.706Z,24.84
2018-08-18T21:14:27.221Z,24.71
2018-08-18T21:16:56.258Z,24.84
2018-08-18T21:19:26.032Z,24.87
2018-08-18T21:21:55.881Z,24.92
2018-08-18T21:24:24.771Z,24.88
2018-08-18T21:26:53.745Z,24.80
2018-08-18T21:29:24.448Z,24.82
2018-08-18T21:31:53.287Z,24.76
2018-08-18T21:34:22.261Z,24.56
2018-08-18T21:36:51.139Z,24.23
2018-08-18T21:39:20.039Z,24.04
2018-08-18T21:41:49.291Z,24.33
2018-08-18T21:44:18.215Z,23.93
2018-08-18T21:46:47.164Z,23.78
2018-08-18T21:49:15.967Z,23.78
2018-08-18T21:51:44.920Z,23.87
2018-08-18T21:54:13.731Z,23.73
2018-08-18T21:56:43.431Z,23.95
2018-08-18T21:59:13.664Z,23.79
2018-08-18T22:01:42.695Z,23.77
2018-08-18T22:04:11.612Z,23.75
2018-08-18T22:06:40.559Z,23.76
2018-08-18T22:09:23.060Z,23.60
2018-08-18T22:11:52.055Z,23.82
2018-08-18T22:14:20.971Z,23.64
2018-08-18T22:16:55.167Z,23.64
2018-08-18T22:19:24.147Z,23.61
2018-08-18T22:21:53.172Z,23.57
2018-08-18T22:24:22.003Z,23.62
2018-08-18T22:26:50.917Z,23.55
2018-08-18T22:29:23.803Z,23.63
2018-08-18T22:31:53.037Z,23.88
2018-08-18T22:34:21.882Z,23.80
2018-08-18T22:36:50.925Z,23.82
2018-08-18T22:39:19.824Z,24.07
2018-08-18T22:41:48.712Z,24.39
2018-08-18T22:44:17.611Z,24.78
2018-08-18T22:46:46.684Z,24.76
2018-08-18T22:49:15.700Z,24.93
2018-08-18T22:51:44.545Z,25.21
2018-08-18T22:54:13.368Z,25.19
2018-08-18T22:56:42.591Z,25.23
2018-08-18T22:59:11.801Z,25.30
2018-08-18T23:01:40.743Z,25.60
2018-08-18T23:04:27.872Z,25.56
2018-08-18T23:06:57.280Z,25.39
2018-08-18T23:09:26.331Z,25.47
2018-08-18T23:11:56.971Z,25.22
2018-08-18T23:14:25.971Z,25.00
2018-08-18T23:16:54.965Z,24.86
2018-08-18T23:19:23.785Z,24.77
2018-08-18T23:21:52.672Z,24.69
2018-08-18T23:24:31.953Z,24.80
2018-08-18T23:27:01.180Z,24.78
2018-08-18T23:29:30.170Z,24.37
2018-08-18T23:31:59.668Z,24.14
2018-08-18T23:34:28.612Z,23.84
2018-08-18T23:36:57.664Z,23.85
2018-08-18T23:39:26.510Z,23.61
2018-08-18T23:42:19.144Z,23.48
2018-08-18T23:44:48.576Z,23.34
2018-08-18T23:47:17.701Z,23.62
2018-08-18T23:49:46.768Z,23.31
2018-08-18T23:52:15.649Z,23.19
2018-08-18T23:54:44.592Z,22.98
2018-08-18T23:57:15.019Z,22.86
2018-08-18T23:59:44.227Z,22.85
